sensor_id;sensor_type;location;lat;lon;timestamp;P1;durP1;ratioP1;P2;durP2;ratioP2
2912;SDS011;1466;48.778;9.166;2023-02-13T00:01:58;29.17;;;10.83;;
2912;SDS011;1466;48.778;9.166;2023-02-13T00:04:23;29.33;;;11.33;;
2912;SDS011;1466;48.778;9.166;2023-02-13T00:06:49;24.83;;;10.47;;
2912;SDS011;1466;48.778;9.166;2023-02-13T00:09:15;32.00;;;11.50;;
2912;SDS011;1466;48.778;9.166;2023-02-13T00:11:40;22.50;;;9.33;;
2912;SDS011;1466;48.778;9.166;2023-02-13T00:14:06;20.30;;;10.50;;
2912;SDS011;1466;48.778;9.166;2023-02-13T00:16:32;23.63;;;10.57;;
2912;SDS011;1466;48.778;9.166;2023-02-13T00:18:58;31.67;;;11.85;;
2912;SDS011;1466;48.778;9.166;2023-02-13T00:21:23;27.13;;;11.40;;
2912;SDS011;1466;48.778;9.166;2023-02-13T00:23:49;24.60;;;9.57;;
2912;SDS011;1466;48.778;9.166;2023-02-13T00:26:15;34.70;;;10.90;;
2912;SDS011;1466;48.778;9.166;2023-02-13T00:28:41;25.25;;;10.45;;
2912;SDS011;1466;48.778;9.166;2023-02-13T00:31:14;21.47;;;10.07;;
2912;SDS011;1466;48.778;9.166;2023-02-13T00:33:42;24.50;;;10.43;;
2912;SDS011;1466;48.778;9.166;2023-02-13T00:38:34;28.50;;;11.27;;
2912;SDS011;1466;48.778;9.166;2023-02-13T00:41:01;29.27;;;10.15;;
2912;SDS011;1466;48.778;9.166;2023-02-13T00:43:27;35.67;;;12.20;;
2912;SDS011;1466;48.778;9.166;2023-02-13T00:45:53;36.13;;;11.27;;
2912;SDS011;1466;48.778;9.166;2023-02-13T00:48:18;19.13;;;9.17;;
2912;SDS011;1466;48.778;9.166;2023-02-13T00:50:45;26.37;;;10.00;;
2912;SDS011;1466;48.778;9.166;2023-02-13T00:53:11;23.73;;;9.48;;
2912;SDS011;1466;48.778;9.166;2023-02-13T00:55:37;25.85;;;10.50;;
2912;SDS011;1466;48.778;9.166;2023-02-13T00:58:04;30.25;;;12.18;;
2912;SDS011;1466;48.778;9.166;2023-02-13T01:00:30;26.60;;;11.67;;
2912;SDS011;1466;48.778;9.166;2023-02-13T01:02:55;29.10;;;11.03;;
2912;SDS011;1466;48.778;9.166;2023-02-13T01:05:21;23.73;;;11.37;;
2912;SDS011;1466;48.778;9.166;2023-02-13T01:07:46;29.07;;;11.03;;
2912;SDS011;1466;48.778;9.166;2023-02-13T01:10:12;28.10;;;11.20;;
2912;SDS011;1466;48.778;9.166;2023-02-13T01:12:37;27.17;;;10.37;;
2912;SDS011;1466;48.778;9.166;2023-02-13T01:15:04;28.60;;;11.40;;
2912;SDS011;1466;48.778;9.166;2023-02-13T01:17:30;38.40;;;13.25;;
2912;SDS011;1466;48.778;9.166;2023-02-13T01:19:56;38.97;;;13.10;;
2912;SDS011;1466;48.778;9.166;2023-02-13T01:22:21;26.47;;;9.97;;
2912;SDS011;1466;48.778;9.166;2023-02-13T01:24:47;40.07;;;12.20;;
2912;SDS011;1466;48.778;9.166;2023-02-13T01:27:12;34.60;;;13.17;;
2912;SDS011;1466;48.778;9.166;2023-02-13T01:29:38;26.57;;;11.10;;
2912;SDS011;1466;48.778;9.166;2023-02-13T01:32:04;25.67;;;11.40;;
2912;SDS011;1466;48.778;9.166;2023-02-13T01:34:32;30.40;;;11.27;;
2912;SDS011;1466;48.778;9.166;2023-02-13T01:36:58;27.77;;;11.85;;
2912;SDS011;1466;48.778;9.166;2023-02-13T01:39:24;23.67;;;11.67;;
2912;SDS011;1466;48.778;9.166;2023-02-13T01:41:49;29.07;;;12.00;;
2912;SDS011;1466;48.778;9.166;2023-02-13T01:50:08;25.98;;;11.35;;
2912;SDS011;1466;48.778;9.166;2023-02-13T01:52:38;20.17;;;9.98;;
2912;SDS011;1466;48.778;9.166;2023-02-13T01:55:07;23.35;;;10.77;;
2912;SDS011;1466;48.778;9.166;2023-02-13T01:57:35;33.17;;;11.05;;
2912;SDS011;1466;48.778;9.166;2023-02-13T02:00:05;34.72;;;12.13;;
2912;SDS011;1466;48.778;9.166;2023-02-13T02:02:34;35.45;;;13.68;;
2912;SDS011;1466;48.778;9.166;2023-02-13T02:05:04;40.72;;;13.68;;
2912;SDS011;1466;48.778;9.166;2023-02-13T02:07:31;21.35;;;10.75;;
2912;SDS011;1466;48.778;9.166;2023-02-13T02:09:59;27.33;;;10.63;;
2912;SDS011;1466;48.778;9.166;2023-02-13T02:12:32;30.75;;;12.82;;
2912;SDS011;1466;48.778;9.166;2023-02-13T02:15:00;29.67;;;11.68;;
2912;SDS011;1466;48.778;9.166;2023-02-13T02:17:28;34.65;;;12.27;;
2912;SDS011;1466;48.778;9.166;2023-02-13T02:33:28;45.42;;;14.13;;
2912;SDS011;1466;48.778;9.166;2023-02-13T02:38:52;30.23;;;11.57;;
2912;SDS011;1466;48.778;9.166;2023-02-13T02:41:50;39.28;;;12.93;;
2912;SDS011;1466;48.778;9.166;2023-02-13T02:47:13;33.83;;;12.23;;
2912;SDS011;1466;48.778;9.166;2023-02-13T02:58:25;28.10;;;11.13;;
2912;SDS011;1466;48.778;9.166;2023-02-13T03:01:17;30.20;;;12.32;;
2912;SDS011;1466;48.778;9.166;2023-02-13T03:04:04;27.75;;;10.80;;
2912;SDS011;1466;48.778;9.166;2023-02-13T03:06:53;22.45;;;10.80;;
2912;SDS011;1466;48.778;9.166;2023-02-13T03:09:29;35.50;;;12.10;;
2912;SDS011;1466;48.778;9.166;2023-02-13T03:12:18;34.05;;;13.52;;
2912;SDS011;1466;48.778;9.166;2023-02-13T03:15:19;41.15;;;14.27;;
2912;SDS011;1466;48.778;9.166;2023-02-13T03:17:45;34.78;;;14.48;;
2912;SDS011;1466;48.778;9.166;2023-02-13T03:28:51;27.63;;;11.88;;
2912;SDS011;1466;48.778;9.166;2023-02-13T03:34:34;37.70;;;12.90;;
2912;SDS011;1466;48.778;9.166;2023-02-13T03:37:27;32.60;;;13.38;;
2912;SDS011;1466;48.778;9.166;2023-02-13T03:40:16;26.35;;;12.38;;
2912;SDS011;1466;48.778;9.166;2023-02-13T03:42:50;32.67;;;12.73;;
2912;SDS011;1466;48.778;9.166;2023-02-13T03:45:31;30.13;;;12.80;;
2912;SDS011;1466;48.778;9.166;2023-02-13T03:48:17;33.85;;;11.90;;
2912;SDS011;1466;48.778;9.166;2023-02-13T03:51:05;35.17;;;13.00;;
2912;SDS011;1466;48.778;9.166;2023-02-13T03:53:34;32.00;;;13.18;;
2912;SDS011;1466;48.778;9.166;2023-02-13T03:56:03;32.08;;;13.32;;
2912;SDS011;1466;48.778;9.166;2023-02-13T03:58:51;36.33;;;13.20;;
2912;SDS011;1466;48.778;9.166;2023-02-13T04:01:39;39.63;;;12.70;;
2912;SDS011;1466;48.778;9.166;2023-02-13T04:06:53;39.97;;;13.40;;
2912;SDS011;1466;48.778;9.166;2023-02-13T04:09:25;34.90;;;14.30;;
2912;SDS011;1466;48.778;9.166;2023-02-13T04:14:54;28.23;;;12.75;;
2912;SDS011;1466;48.778;9.166;2023-02-13T04:17:43;35.63;;;13.48;;
2912;SDS011;1466;48.778;9.166;2023-02-13T04:20:13;49.55;;;15.68;;
2912;SDS011;1466;48.778;9.166;2023-02-13T04:22:45;34.90;;;12.70;;
2912;SDS011;1466;48.778;9.166;2023-02-13T04:25:13;55.53;;;14.70;;
2912;SDS011;1466;48.778;9.166;2023-02-13T04:27:40;28.65;;;11.77;;
2912;SDS011;1466;48.778;9.166;2023-02-13T04:30:06;42.03;;;12.47;;
2912;SDS011;1466;48.778;9.166;2023-02-13T04:32:33;36.63;;;13.63;;
2912;SDS011;1466;48.778;9.166;2023-02-13T04:34:58;37.57;;;13.17;;
2912;SDS011;1466;48.778;9.166;2023-02-13T04:37:24;37.73;;;14.20;;
2912;SDS011;1466;48.778;9.166;2023-02-13T04:39:50;32.67;;;12.83;;
2912;SDS011;1466;48.778;9.166;2023-02-13T04:42:15;31.57;;;12.00;;
2912;SDS011;1466;48.778;9.166;2023-02-13T04:44:41;40.40;;;15.70;;
2912;SDS011;1466;48.778;9.166;2023-02-13T04:47:06;43.33;;;13.50;;
2912;SDS011;1466;48.778;9.166;2023-02-13T04:49:32;42.53;;;14.53;;
2912;SDS011;1466;48.778;9.166;2023-02-13T04:51:57;43.67;;;14.10;;
2912;SDS011;1466;48.778;9.166;2023-02-13T04:54:23;45.07;;;15.90;;
2912;SDS011;1466;48.778;9.166;2023-02-13T04:56:48;36.03;;;13.83;;
2912;SDS011;1466;48.778;9.166;2023-02-13T04:59:14;42.07;;;15.03;;
2912;SDS011;1466;48.778;9.166;2023-02-13T05:01:39;46.90;;;14.83;;
2912;SDS011;1466;48.778;9.166;2023-02-13T05:04:05;31.50;;;11.70;;
2912;SDS011;1466;48.778;9.166;2023-02-13T05:06:31;38.50;;;13.40;;
2912;SDS011;1466;48.778;9.166;2023-02-13T05:08:56;46.70;;;15.37;;
2912;SDS011;1466;48.778;9.166;2023-02-13T05:11:22;45.00;;;15.10;;
2912;SDS011;1466;48.778;9.166;2023-02-13T05:13:47;34.50;;;12.70;;
2912;SDS011;1466;48.778;9.166;2023-02-13T05:16:13;32.83;;;14.10;;
2912;SDS011;1466;48.778;9.166;2023-02-13T05:18:38;42.43;;;14.73;;
2912;SDS011;1466;48.778;9.166;2023-02-13T05:21:04;33.63;;;12.90;;
2912;SDS011;1466;48.778;9.166;2023-02-13T05:23:48;37.15;;;13.05;;
2912;SDS011;1466;48.778;9.166;2023-02-13T05:26:13;37.97;;;12.60;;
2912;SDS011;1466;48.778;9.166;2023-02-13T05:28:39;29.57;;;12.97;;
2912;SDS011;1466;48.778;9.166;2023-02-13T05:31:23;35.03;;;13.52;;
2912;SDS011;1466;48.778;9.166;2023-02-13T05:33:48;39.13;;;13.70;;
2912;SDS011;1466;48.778;9.166;2023-02-13T05:36:14;32.63;;;12.67;;
2912;SDS011;1466;48.778;9.166;2023-02-13T05:38:40;51.37;;;16.53;;
2912;SDS011;1466;48.778;9.166;2023-02-13T05:41:05;43.07;;;14.30;;
2912;SDS011;1466;48.778;9.166;2023-02-13T05:43:31;30.90;;;13.07;;
2912;SDS011;1466;48.778;9.166;2023-02-13T05:46:06;38.27;;;13.63;;
2912;SDS011;1466;48.778;9.166;2023-02-13T05:48:33;34.20;;;13.55;;
2912;SDS011;1466;48.778;9.166;2023-02-13T05:50:59;38.80;;;15.85;;
2912;SDS011;1466;48.778;9.166;2023-02-13T05:53:25;34.97;;;13.67;;
2912;SDS011;1466;48.778;9.166;2023-02-13T05:55:51;36.70;;;13.40;;
2912;SDS011;1466;48.778;9.166;2023-02-13T05:58:19;33.53;;;14.33;;
2912;SDS011;1466;48.778;9.166;2023-02-13T06:00:46;36.03;;;13.43;;
2912;SDS011;1466;48.778;9.166;2023-02-13T06:03:12;39.40;;;14.77;;
2912;SDS011;1466;48.778;9.166;2023-02-13T06:05:37;34.77;;;11.50;;
2912;SDS011;1466;48.778;9.166;2023-02-13T06:08:03;38.57;;;13.43;;
2912;SDS011;1466;48.778;9.166;2023-02-13T06:10:29;37.73;;;14.20;;
2912;SDS011;1466;48.778;9.166;2023-02-13T06:12:54;42.13;;;15.03;;
2912;SDS011;1466;48.778;9.166;2023-02-13T06:15:20;35.83;;;13.50;;
2912;SDS011;1466;48.778;9.166;2023-02-13T06:17:45;36.10;;;15.20;;
2912;SDS011;1466;48.778;9.166;2023-02-13T06:20:11;36.47;;;13.53;;
2912;SDS011;1466;48.778;9.166;2023-02-13T06:22:37;56.97;;;16.47;;
2912;SDS011;1466;48.778;9.166;2023-02-13T06:25:02;36.60;;;13.67;;
2912;SDS011;1466;48.778;9.166;2023-02-13T06:27:28;41.87;;;14.30;;
2912;SDS011;1466;48.778;9.166;2023-02-13T06:29:53;36.07;;;14.10;;
2912;SDS011;1466;48.778;9.166;2023-02-13T06:32:19;60.37;;;15.00;;
2912;SDS011;1466;48.778;9.166;2023-02-13T06:34:45;35.95;;;14.07;;
2912;SDS011;1466;48.778;9.166;2023-02-13T06:37:12;38.13;;;14.98;;
2912;SDS011;1466;48.778;9.166;2023-02-13T06:39:38;50.95;;;16.02;;
2912;SDS011;1466;48.778;9.166;2023-02-13T06:42:04;33.17;;;12.68;;
2912;SDS011;1466;48.778;9.166;2023-02-13T06:44:31;41.65;;;15.38;;
2912;SDS011;1466;48.778;9.166;2023-02-13T06:46:58;35.63;;;12.68;;
2912;SDS011;1466;48.778;9.166;2023-02-13T06:49:24;47.65;;;14.65;;
2912;SDS011;1466;48.778;9.166;2023-02-13T06:51:51;38.15;;;13.98;;
2912;SDS011;1466;48.778;9.166;2023-02-13T06:54:19;43.53;;;14.85;;
2912;SDS011;1466;48.778;9.166;2023-02-13T06:56:46;47.75;;;16.77;;
2912;SDS011;1466;48.778;9.166;2023-02-13T06:59:12;40.25;;;14.95;;
2912;SDS011;1466;48.778;9.166;2023-02-13T07:01:38;50.67;;;16.57;;
2912;SDS011;1466;48.778;9.166;2023-02-13T07:04:04;44.40;;;15.53;;
2912;SDS011;1466;48.778;9.166;2023-02-13T07:06:29;40.93;;;13.97;;
2912;SDS011;1466;48.778;9.166;2023-02-13T07:08:55;37.53;;;14.13;;
2912;SDS011;1466;48.778;9.166;2023-02-13T07:11:21;45.97;;;16.33;;
2912;SDS011;1466;48.778;9.166;2023-02-13T07:13:48;42.78;;;14.77;;
2912;SDS011;1466;48.778;9.166;2023-02-13T07:16:14;33.70;;;12.95;;
2912;SDS011;1466;48.778;9.166;2023-02-13T07:18:40;33.93;;;14.10;;
2912;SDS011;1466;48.778;9.166;2023-02-13T07:21:06;37.33;;;14.30;;
2912;SDS011;1466;48.778;9.166;2023-02-13T07:23:32;42.53;;;14.68;;
2912;SDS011;1466;48.778;9.166;2023-02-13T07:25:58;36.40;;;15.43;;
2912;SDS011;1466;48.778;9.166;2023-02-13T07:28:25;35.45;;;14.77;;
2912;SDS011;1466;48.778;9.166;2023-02-13T07:30:51;48.63;;;17.60;;
2912;SDS011;1466;48.778;9.166;2023-02-13T07:33:17;33.27;;;14.40;;
2912;SDS011;1466;48.778;9.166;2023-02-13T07:35:46;41.33;;;14.10;;
2912;SDS011;1466;48.778;9.166;2023-02-13T07:38:12;36.88;;;14.80;;
2912;SDS011;1466;48.778;9.166;2023-02-13T07:40:38;49.13;;;16.97;;
2912;SDS011;1466;48.778;9.166;2023-02-13T07:43:03;47.77;;;14.53;;
2912;SDS011;1466;48.778;9.166;2023-02-13T07:45:29;44.03;;;16.20;;
2912;SDS011;1466;48.778;9.166;2023-02-13T07:47:55;63.30;;;18.57;;
2912;SDS011;1466;48.778;9.166;2023-02-13T07:50:21;32.87;;;13.83;;
2912;SDS011;1466;48.778;9.166;2023-02-13T07:52:56;39.13;;;14.73;;
2912;SDS011;1466;48.778;9.166;2023-02-13T07:55:23;33.90;;;14.98;;
2912;SDS011;1466;48.778;9.166;2023-02-13T07:57:50;33.10;;;15.18;;
2912;SDS011;1466;48.778;9.166;2023-02-13T08:00:16;43.30;;;14.70;;
2912;SDS011;1466;48.778;9.166;2023-02-13T08:02:42;37.45;;;14.43;;
2912;SDS011;1466;48.778;9.166;2023-02-13T08:05:08;42.50;;;15.57;;
2912;SDS011;1466;48.778;9.166;2023-02-13T08:07:35;40.20;;;15.77;;
2912;SDS011;1466;48.778;9.166;2023-02-13T08:10:01;45.55;;;17.55;;
2912;SDS011;1466;48.778;9.166;2023-02-13T08:12:46;43.75;;;17.23;;
2912;SDS011;1466;48.778;9.166;2023-02-13T08:15:12;37.60;;;15.30;;
2912;SDS011;1466;48.778;9.166;2023-02-13T08:17:39;63.42;;;18.05;;
2912;SDS011;1466;48.778;9.166;2023-02-13T08:20:05;48.03;;;16.77;;
2912;SDS011;1466;48.778;9.166;2023-02-13T08:22:35;71.28;;;19.00;;
2912;SDS011;1466;48.778;9.166;2023-02-13T08:25:01;38.38;;;15.85;;
2912;SDS011;1466;48.778;9.166;2023-02-13T08:27:27;55.83;;;18.38;;
2912;SDS011;1466;48.778;9.166;2023-02-13T08:29:54;29.77;;;14.25;;
2912;SDS011;1466;48.778;9.166;2023-02-13T08:32:20;41.38;;;16.58;;
2912;SDS011;1466;48.778;9.166;2023-02-13T08:34:46;49.33;;;18.77;;
2912;SDS011;1466;48.778;9.166;2023-02-13T08:37:12;51.33;;;17.50;;
2912;SDS011;1466;48.778;9.166;2023-02-13T08:39:37;39.13;;;16.90;;
2912;SDS011;1466;48.778;9.166;2023-02-13T08:42:03;45.87;;;17.00;;
2912;SDS011;1466;48.778;9.166;2023-02-13T08:44:28;40.33;;;17.20;;
2912;SDS011;1466;48.778;9.166;2023-02-13T08:46:54;45.80;;;17.87;;
2912;SDS011;1466;48.778;9.166;2023-02-13T08:49:20;48.57;;;16.87;;
2912;SDS011;1466;48.778;9.166;2023-02-13T08:51:47;43.92;;;18.25;;
2912;SDS011;1466;48.778;9.166;2023-02-13T08:54:13;47.50;;;17.48;;
2912;SDS011;1466;48.778;9.166;2023-02-13T08:56:39;38.33;;;15.77;;
2912;SDS011;1466;48.778;9.166;2023-02-13T08:59:05;36.70;;;14.70;;
2912;SDS011;1466;48.778;9.166;2023-02-13T09:01:31;41.83;;;14.17;;
2912;SDS011;1466;48.778;9.166;2023-02-13T09:03:56;37.77;;;14.77;;
2912;SDS011;1466;48.778;9.166;2023-02-13T09:06:22;43.43;;;14.73;;
2912;SDS011;1466;48.778;9.166;2023-02-13T09:08:50;34.25;;;12.55;;
2912;SDS011;1466;48.778;9.166;2023-02-13T09:11:16;32.17;;;12.37;;
2912;SDS011;1466;48.778;9.166;2023-02-13T09:13:41;28.93;;;13.03;;
2912;SDS011;1466;48.778;9.166;2023-02-13T09:16:07;40.40;;;13.80;;
2912;SDS011;1466;48.778;9.166;2023-02-13T09:18:34;46.10;;;15.20;;
2912;SDS011;1466;48.778;9.166;2023-02-13T09:21:00;45.47;;;14.30;;
2912;SDS011;1466;48.778;9.166;2023-02-13T09:23:32;43.22;;;14.75;;
2912;SDS011;1466;48.778;9.166;2023-02-13T09:25:59;39.47;;;13.88;;
2912;SDS011;1466;48.778;9.166;2023-02-13T09:28:30;41.78;;;15.02;;
2912;SDS011;1466;48.778;9.166;2023-02-13T09:30:57;44.83;;;15.23;;
2912;SDS011;1466;48.778;9.166;2023-02-13T09:33:23;23.10;;;10.90;;
2912;SDS011;1466;48.778;9.166;2023-02-13T09:35:48;24.67;;;11.27;;
2912;SDS011;1466;48.778;9.166;2023-02-13T09:38:14;29.63;;;12.77;;
2912;SDS011;1466;48.778;9.166;2023-02-13T09:40:51;38.73;;;14.13;;
2912;SDS011;1466;48.778;9.166;2023-02-13T09:43:30;38.05;;;13.77;;
2912;SDS011;1466;48.778;9.166;2023-02-13T09:46:02;30.98;;;14.00;;
2912;SDS011;1466;48.778;9.166;2023-02-13T09:48:33;31.35;;;13.07;;
2912;SDS011;1466;48.778;9.166;2023-02-13T09:51:02;30.65;;;11.88;;
2912;SDS011;1466;48.778;9.166;2023-02-13T09:53:28;42.67;;;15.90;;
2912;SDS011;1466;48.778;9.166;2023-02-13T09:58:38;27.33;;;13.68;;
2912;SDS011;1466;48.778;9.166;2023-02-13T10:01:27;29.52;;;13.15;;
2912;SDS011;1466;48.778;9.166;2023-02-13T10:07:08;32.00;;;12.63;;
2912;SDS011;1466;48.778;9.166;2023-02-13T10:17:49;31.98;;;13.25;;
2912;SDS011;1466;48.778;9.166;2023-02-13T10:23:49;35.55;;;13.13;;
2912;SDS011;1466;48.778;9.166;2023-02-13T10:26:04;35.40;;;11.68;;
2912;SDS011;1466;48.778;9.166;2023-02-13T10:28:48;28.45;;;12.55;;
2912;SDS011;1466;48.778;9.166;2023-02-13T10:31:35;32.70;;;11.75;;
2912;SDS011;1466;48.778;9.166;2023-02-13T10:34:03;25.70;;;11.57;;
2912;SDS011;1466;48.778;9.166;2023-02-13T10:36:34;28.20;;;12.15;;
2912;SDS011;1466;48.778;9.166;2023-02-13T10:44:18;30.15;;;11.48;;
2912;SDS011;1466;48.778;9.166;2023-02-13T10:55:45;21.60;;;10.77;;
2912;SDS011;1466;48.778;9.166;2023-02-13T10:58:19;20.63;;;11.05;;
2912;SDS011;1466;48.778;9.166;2023-02-13T11:03:24;27.27;;;12.40;;
2912;SDS011;1466;48.778;9.166;2023-02-13T11:05:51;25.35;;;11.80;;
2912;SDS011;1466;48.778;9.166;2023-02-13T11:11:03;22.55;;;10.95;;
2912;SDS011;1466;48.778;9.166;2023-02-13T11:13:50;18.65;;;10.32;;
2912;SDS011;1466;48.778;9.166;2023-02-13T11:19:28;29.40;;;10.65;;
2912;SDS011;1466;48.778;9.166;2023-02-13T11:22:43;26.88;;;10.55;;
2912;SDS011;1466;48.778;9.166;2023-02-13T11:27:44;21.63;;;10.52;;
2912;SDS011;1466;48.778;9.166;2023-02-13T11:35:40;26.92;;;9.65;;
2912;SDS011;1466;48.778;9.166;2023-02-13T11:38:10;25.00;;;10.57;;
2912;SDS011;1466;48.778;9.166;2023-02-13T11:40:36;22.23;;;8.70;;
2912;SDS011;1466;48.778;9.166;2023-02-13T11:43:05;27.08;;;10.77;;
2912;SDS011;1466;48.778;9.166;2023-02-13T11:45:32;22.02;;;10.40;;
2912;SDS011;1466;48.778;9.166;2023-02-13T11:47:58;31.55;;;12.18;;
2912;SDS011;1466;48.778;9.166;2023-02-13T11:53:05;20.13;;;9.20;;
2912;SDS011;1466;48.778;9.166;2023-02-13T11:55:40;43.55;;;12.65;;
2912;SDS011;1466;48.778;9.166;2023-02-13T11:58:25;29.17;;;10.52;;
2912;SDS011;1466;48.778;9.166;2023-02-13T12:03:43;17.13;;;8.60;;
2912;SDS011;1466;48.778;9.166;2023-02-13T12:06:20;20.73;;;9.32;;
2912;SDS011;1466;48.778;9.166;2023-02-13T12:08:46;22.40;;;9.70;;
2912;SDS011;1466;48.778;9.166;2023-02-13T12:11:56;22.30;;;9.38;;
2912;SDS011;1466;48.778;9.166;2023-02-13T12:14:18;17.23;;;8.10;;
2912;SDS011;1466;48.778;9.166;2023-02-13T12:19:19;40.05;;;11.23;;
2912;SDS011;1466;48.778;9.166;2023-02-13T12:22:08;13.35;;;7.45;;
2912;SDS011;1466;48.778;9.166;2023-02-13T12:30:21;24.63;;;9.90;;
2912;SDS011;1466;48.778;9.166;2023-02-13T12:33:15;27.15;;;10.50;;
2912;SDS011;1466;48.778;9.166;2023-02-13T12:58:04;23.90;;;10.82;;
2912;SDS011;1466;48.778;9.166;2023-02-13T13:00:56;33.25;;;11.35;;
2912;SDS011;1466;48.778;9.166;2023-02-13T13:06:42;24.30;;;10.35;;
2912;SDS011;1466;48.778;9.166;2023-02-13T13:17:37;19.90;;;10.15;;
2912;SDS011;1466;48.778;9.166;2023-02-13T13:25:51;21.15;;;9.48;;
2912;SDS011;1466;48.778;9.166;2023-02-13T13:28:41;21.30;;;10.30;;
2912;SDS011;1466;48.778;9.166;2023-02-13T13:31:10;18.75;;;8.95;;
2912;SDS011;1466;48.778;9.166;2023-02-13T13:33:39;18.92;;;9.52;;
2912;SDS011;1466;48.778;9.166;2023-02-13T13:38:46;30.92;;;11.60;;
2912;SDS011;1466;48.778;9.166;2023-02-13T13:41:25;31.80;;;10.35;;
2912;SDS011;1466;48.778;9.166;2023-02-13T13:46:58;27.17;;;10.93;;
2912;SDS011;1466;48.778;9.166;2023-02-13T13:54:43;20.25;;;9.00;;
2912;SDS011;1466;48.778;9.166;2023-02-13T13:57:16;27.20;;;11.65;;
2912;SDS011;1466;48.778;9.166;2023-02-13T14:07:43;22.75;;;11.05;;
2912;SDS011;1466;48.778;9.166;2023-02-13T14:28:53;22.23;;;9.98;;
2912;SDS011;1466;48.778;9.166;2023-02-13T14:36:38;23.80;;;9.77;;
2912;SDS011;1466;48.778;9.166;2023-02-13T14:39:28;22.08;;;9.95;;
2912;SDS011;1466;48.778;9.166;2023-02-13T14:41:59;17.98;;;9.27;;
2912;SDS011;1466;48.778;9.166;2023-02-13T14:47:04;21.65;;;9.65;;
2912;SDS011;1466;48.778;9.166;2023-02-13T14:49:38;22.10;;;9.40;;
2912;SDS011;1466;48.778;9.166;2023-02-13T14:52:51;19.85;;;8.77;;
2912;SDS011;1466;48.778;9.166;2023-02-13T14:54:59;20.50;;;9.63;;
2912;SDS011;1466;48.778;9.166;2023-02-13T14:57:51;23.13;;;9.40;;
2912;SDS011;1466;48.778;9.166;2023-02-13T15:03:21;19.65;;;7.85;;
2912;SDS011;1466;48.778;9.166;2023-02-13T15:05:52;19.85;;;9.43;;
2912;SDS011;1466;48.778;9.166;2023-02-13T15:08:25;23.38;;;10.52;;
2912;SDS011;1466;48.778;9.166;2023-02-13T15:10:56;23.48;;;9.98;;
2912;SDS011;1466;48.778;9.166;2023-02-13T15:13:39;25.57;;;10.50;;
2912;SDS011;1466;48.778;9.166;2023-02-13T15:16:06;25.92;;;10.90;;
2912;SDS011;1466;48.778;9.166;2023-02-13T15:18:43;19.58;;;9.10;;
2912;SDS011;1466;48.778;9.166;2023-02-13T15:21:14;28.80;;;11.25;;
2912;SDS011;1466;48.778;9.166;2023-02-13T15:23:41;24.13;;;10.80;;
2912;SDS011;1466;48.778;9.166;2023-02-13T15:26:08;27.05;;;9.73;;
2912;SDS011;1466;48.778;9.166;2023-02-13T15:28:42;24.23;;;9.80;;
2912;SDS011;1466;48.778;9.166;2023-02-13T15:31:23;23.75;;;10.43;;
2912;SDS011;1466;48.778;9.166;2023-02-13T15:33:49;18.27;;;9.18;;
2912;SDS011;1466;48.778;9.166;2023-02-13T15:36:17;22.58;;;9.85;;
2912;SDS011;1466;48.778;9.166;2023-02-13T15:38:45;39.45;;;12.30;;
2912;SDS011;1466;48.778;9.166;2023-02-13T15:41:12;35.78;;;11.55;;
2912;SDS011;1466;48.778;9.166;2023-02-13T15:43:52;28.88;;;10.38;;
2912;SDS011;1466;48.778;9.166;2023-02-13T15:48:59;23.33;;;9.52;;
2912;SDS011;1466;48.778;9.166;2023-02-13T15:51:30;27.63;;;10.90;;
2912;SDS011;1466;48.778;9.166;2023-02-13T15:56:24;41.30;;;12.15;;
2912;SDS011;1466;48.778;9.166;2023-02-13T15:58:50;27.48;;;10.32;;
2912;SDS011;1466;48.778;9.166;2023-02-13T16:01:17;27.98;;;10.75;;
2912;SDS011;1466;48.778;9.166;2023-02-13T16:03:47;43.20;;;11.55;;
2912;SDS011;1466;48.778;9.166;2023-02-13T16:06:16;25.48;;;10.10;;
2912;SDS011;1466;48.778;9.166;2023-02-13T16:08:43;30.35;;;10.82;;
2912;SDS011;1466;48.778;9.166;2023-02-13T16:13:57;27.67;;;9.50;;
2912;SDS011;1466;48.778;9.166;2023-02-13T16:16:25;24.67;;;9.20;;
2912;SDS011;1466;48.778;9.166;2023-02-13T16:18:52;22.77;;;9.18;;
2912;SDS011;1466;48.778;9.166;2023-02-13T16:21:22;26.73;;;10.10;;
2912;SDS011;1466;48.778;9.166;2023-02-13T16:23:55;42.20;;;12.25;;
2912;SDS011;1466;48.778;9.166;2023-02-13T16:26:24;28.40;;;10.60;;
2912;SDS011;1466;48.778;9.166;2023-02-13T16:28:50;29.17;;;11.95;;
2912;SDS011;1466;48.778;9.166;2023-02-13T16:31:16;22.00;;;9.73;;
2912;SDS011;1466;48.778;9.166;2023-02-13T16:33:43;40.60;;;12.82;;
2912;SDS011;1466;48.778;9.166;2023-02-13T16:38:48;26.90;;;10.37;;
2912;SDS011;1466;48.778;9.166;2023-02-13T16:44:04;28.30;;;10.25;;
2912;SDS011;1466;48.778;9.166;2023-02-13T16:46:49;27.88;;;11.25;;
2912;SDS011;1466;48.778;9.166;2023-02-13T16:49:26;28.75;;;11.38;;
2912;SDS011;1466;48.778;9.166;2023-02-13T16:51:55;27.20;;;10.23;;
2912;SDS011;1466;48.778;9.166;2023-02-13T16:54:25;36.45;;;10.93;;
2912;SDS011;1466;48.778;9.166;2023-02-13T17:02:06;27.50;;;9.98;;
2912;SDS011;1466;48.778;9.166;2023-02-13T17:04:41;21.55;;;9.70;;
2912;SDS011;1466;48.778;9.166;2023-02-13T17:07:16;29.27;;;11.75;;
2912;SDS011;1466;48.778;9.166;2023-02-13T17:09:44;28.88;;;9.98;;
2912;SDS011;1466;48.778;9.166;2023-02-13T17:12:15;24.02;;;8.95;;
2912;SDS011;1466;48.778;9.166;2023-02-13T17:14:42;43.65;;;12.98;;
2912;SDS011;1466;48.778;9.166;2023-02-13T17:17:12;17.93;;;8.77;;
2912;SDS011;1466;48.778;9.166;2023-02-13T17:19:40;22.73;;;10.90;;
2912;SDS011;1466;48.778;9.166;2023-02-13T17:22:06;19.35;;;9.68;;
2912;SDS011;1466;48.778;9.166;2023-02-13T17:24:37;29.40;;;11.30;;
2912;SDS011;1466;48.778;9.166;2023-02-13T17:27:02;23.93;;;10.00;;
2912;SDS011;1466;48.778;9.166;2023-02-13T17:29:28;24.10;;;10.60;;
2912;SDS011;1466;48.778;9.166;2023-02-13T17:31:54;24.73;;;10.23;;
2912;SDS011;1466;48.778;9.166;2023-02-13T17:34:21;21.38;;;10.00;;
2912;SDS011;1466;48.778;9.166;2023-02-13T17:36:46;23.23;;;10.63;;
2912;SDS011;1466;48.778;9.166;2023-02-13T17:39:12;25.73;;;10.53;;
2912;SDS011;1466;48.778;9.166;2023-02-13T17:41:38;24.17;;;10.17;;
2912;SDS011;1466;48.778;9.166;2023-02-13T17:44:06;45.67;;;13.82;;
2912;SDS011;1466;48.778;9.166;2023-02-13T17:46:35;22.92;;;10.52;;
2912;SDS011;1466;48.778;9.166;2023-02-13T17:49:01;40.27;;;12.40;;
2912;SDS011;1466;48.778;9.166;2023-02-13T17:51:28;24.65;;;10.70;;
2912;SDS011;1466;48.778;9.166;2023-02-13T17:53:55;28.25;;;11.52;;
2912;SDS011;1466;48.778;9.166;2023-02-13T17:56:21;41.20;;;12.93;;
2912;SDS011;1466;48.778;9.166;2023-02-13T17:58:46;41.10;;;13.97;;
2912;SDS011;1466;48.778;9.166;2023-02-13T18:01:12;38.47;;;12.00;;
2912;SDS011;1466;48.778;9.166;2023-02-13T18:03:38;27.13;;;12.73;;
2912;SDS011;1466;48.778;9.166;2023-02-13T18:06:04;39.35;;;13.93;;
2912;SDS011;1466;48.778;9.166;2023-02-13T18:08:30;41.00;;;13.40;;
2912;SDS011;1466;48.778;9.166;2023-02-13T18:10:56;27.13;;;11.63;;
2912;SDS011;1466;48.778;9.166;2023-02-13T18:13:22;34.10;;;11.80;;
2912;SDS011;1466;48.778;9.166;2023-02-13T18:15:47;32.80;;;12.50;;
2912;SDS011;1466;48.778;9.166;2023-02-13T18:18:14;28.83;;;11.83;;
2912;SDS011;1466;48.778;9.166;2023-02-13T18:20:40;34.47;;;12.32;;
2912;SDS011;1466;48.778;9.166;2023-02-13T18:23:07;46.45;;;15.20;;
2912;SDS011;1466;48.778;9.166;2023-02-13T18:25:33;34.17;;;13.07;;
2912;SDS011;1466;48.778;9.166;2023-02-13T18:27:59;40.55;;;14.55;;
2912;SDS011;1466;48.778;9.166;2023-02-13T18:30:25;33.73;;;13.23;;
2912;SDS011;1466;48.778;9.166;2023-02-13T18:32:52;25.40;;;12.60;;
2912;SDS011;1466;48.778;9.166;2023-02-13T18:35:19;28.92;;;12.02;;
2912;SDS011;1466;48.778;9.166;2023-02-13T18:37:45;30.88;;;11.82;;
2912;SDS011;1466;48.778;9.166;2023-02-13T18:40:12;31.20;;;13.10;;
2912;SDS011;1466;48.778;9.166;2023-02-13T18:42:42;33.97;;;13.27;;
2912;SDS011;1466;48.778;9.166;2023-02-13T18:45:08;26.95;;;10.82;;
2912;SDS011;1466;48.778;9.166;2023-02-13T18:47:35;29.23;;;11.35;;